createdAt,value
2023-01-22T00:01:49.516Z,99804.66
2023-01-22T00:06:53.763Z,99803.59
2023-01-22T00:11:57.914Z,99796.94
2023-01-22T00:17:00.835Z,99793.22
2023-01-22T00:22:05.100Z,99798.19
2023-01-22T00:27:08.173Z,99803.00
2023-01-22T00:32:11.235Z,99799.81
2023-01-22T00:37:17.954Z,99801.66
2023-01-22T00:42:20.883Z,99807.50
2023-01-22T00:47:23.791Z,99809.91
2023-01-22T00:52:28.337Z,99819.16
2023-01-22T00:57:31.260Z,99826.69
2023-01-22T01:02:55.529Z,99827.06
2023-01-22T01:07:59.840Z,99825.03
2023-01-22T01:13:02.800Z,99825.22
2023-01-22T01:18:06.017Z,99838.94
2023-01-22T01:23:10.326Z,99826.72
2023-01-22T01:28:13.229Z,99826.25
2023-01-22T01:33:16.139Z,99831.72
2023-01-22T01:38:20.396Z,99824.69
2023-01-22T01:43:23.875Z,99818.88
2023-01-22T01:48:32.446Z,99825.69
2023-01-22T01:53:37.663Z,99812.75
2023-01-22T01:58:43.335Z,99816.63
2023-01-22T02:03:47.860Z,99818.63
2023-01-22T02:08:53.758Z,99823.75
2023-01-22T02:14:02.793Z,99832.81
2023-01-22T02:19:05.731Z,99843.31
2023-01-22T02:24:11.937Z,99845.84
2023-01-22T02:29:15.957Z,99855.44
2023-01-22T02:34:19.417Z,99859.69
2023-01-22T02:39:24.707Z,99854.09
2023-01-22T02:44:27.731Z,99851.16
2023-01-22T02:49:30.644Z,99850.31
2023-01-22T02:54:35.072Z,99856.16
2023-01-22T02:59:38.049Z,99851.00
2023-01-22T03:04:41.216Z,99858.19
2023-01-22T03:09:47.097Z,99851.38
2023-01-22T03:15:07.352Z,99866.28
2023-01-22T03:20:30.007Z,99853.56
2023-01-22T03:25:34.325Z,99867.78
2023-01-22T03:30:37.590Z,99866.09
2023-01-22T03:35:40.761Z,99873.44
2023-01-22T03:40:51.062Z,99867.97
2023-01-22T03:45:55.128Z,99872.84
2023-01-22T03:51:05.545Z,99880.72
2023-01-22T03:56:12.526Z,99877.34
2023-01-22T04:01:18.186Z,99882.59
2023-01-22T04:06:22.292Z,99889.19
2023-01-22T04:11:26.692Z,99900.00
2023-01-22T04:16:30.096Z,99894.94
2023-01-22T04:22:00.118Z,99892.78
2023-01-22T04:27:05.099Z,99902.41
2023-01-22T04:32:08.095Z,99907.84
2023-01-22T04:37:25.887Z,99906.88
2023-01-22T04:42:30.318Z,99902.34
2023-01-22T04:47:33.360Z,99896.19
2023-01-22T04:52:36.306Z,99901.66
2023-01-22T04:57:41.308Z,99909.41
2023-01-22T05:02:44.236Z,99908.66
2023-01-22T05:07:47.860Z,99916.09
2023-01-22T05:12:52.635Z,99918.25
2023-01-22T05:17:55.785Z,99915.84
2023-01-22T05:22:58.719Z,99932.00
2023-01-22T05:28:04.339Z,99923.84
2023-01-22T05:33:20.110Z,99928.84
2023-01-22T05:38:23.223Z,99922.06
2023-01-22T05:43:27.654Z,99941.38
2023-01-22T05:48:36.347Z,99931.84
2023-01-22T05:53:47.947Z,99938.16
2023-01-22T05:58:53.056Z,99938.16
2023-01-22T06:03:56.093Z,99944.44
2023-01-22T06:09:00.881Z,99940.47
2023-01-22T06:14:10.541Z,99954.16
2023-01-22T06:19:13.605Z,99950.91
2023-01-22T06:24:20.992Z,99961.09
2023-01-22T06:29:25.321Z,99966.75
2023-01-22T06:34:28.917Z,99980.63
2023-01-22T06:39:35.612Z,99986.75
2023-01-22T06:44:47.835Z,99987.91
2023-01-22T06:49:51.117Z,100004.38
2023-01-22T06:54:54.093Z,100010.97
2023-01-22T06:59:59.111Z,100011.38
2023-01-22T07:05:02.035Z,100014.81
2023-01-22T07:10:05.521Z,100017.16
2023-01-22T07:15:10.348Z,100025.81
2023-01-22T07:20:13.592Z,100035.91
2023-01-22T07:25:16.854Z,100024.44
2023-01-22T07:30:21.448Z,100027.16
2023-01-22T07:35:24.329Z,100036.88
2023-01-22T07:40:28.016Z,100040.56
2023-01-22T07:45:32.410Z,100047.81
2023-01-22T07:50:36.883Z,100061.22
2023-01-22T07:55:41.557Z,100070.63
2023-01-22T08:00:45.824Z,100070.16
2023-01-22T08:05:48.738Z,100071.56
2023-01-22T08:10:51.605Z,100072.38
2023-01-22T08:15:56.125Z,100084.22
2023-01-22T08:21:01.053Z,100088.19
2023-01-22T08:26:05.044Z,100091.97
2023-01-22T08:31:16.459Z,100097.25
2023-01-22T08:36:27.963Z,100104.84
2023-01-22T08:41:30.886Z,100113.50
2023-01-22T08:46:38.527Z,100124.88
2023-01-22T08:51:41.464Z,100119.81
2023-01-22T08:56:44.403Z,100118.97
2023-01-22T09:01:48.924Z,100117.66
2023-01-22T09:06:51.857Z,100123.34
2023-01-22T09:11:54.720Z,100123.59
2023-01-22T09:16:58.948Z,100124.56
2023-01-22T09:22:06.305Z,100130.56
2023-01-22T09:27:12.061Z,100128.03
2023-01-22T09:32:16.303Z,100127.03
2023-01-22T09:37:19.279Z,100129.63
2023-01-22T09:42:27.207Z,100126.78
2023-01-22T09:47:35.319Z,100132.72
2023-01-22T09:52:40.263Z,100139.00
2023-01-22T09:57:47.659Z,100137.78
2023-01-22T10:02:56.302Z,100142.94
2023-01-22T10:08:05.252Z,100146.75
2023-01-22T10:13:15.921Z,100146.38
2023-01-22T10:18:35.494Z,100154.66
2023-01-22T10:23:38.647Z,100149.81
2023-01-22T10:28:45.343Z,100147.78
2023-01-22T10:33:56.703Z,100151.81
2023-01-22T10:39:09.833Z,100159.44
2023-01-22T10:44:20.738Z,100165.72
2023-01-22T10:49:26.653Z,100170.16
2023-01-22T10:54:33.297Z,100173.09
2023-01-22T10:59:36.581Z,100170.72
2023-01-22T11:04:40.815Z,100168.84
2023-01-22T11:09:47.688Z,100161.66
2023-01-22T11:15:03.481Z,100163.94
2023-01-22T11:20:21.266Z,100151.38
2023-01-22T11:25:25.108Z,100161.56
2023-01-22T11:30:51.320Z,100175.31
2023-01-22T11:36:01.359Z,100178.50
2023-01-22T11:41:18.837Z,100165.91
2023-01-22T11:46:37.064Z,100182.69
2023-01-22T11:51:56.095Z,100175.25
2023-01-22T11:57:12.629Z,100165.38
2023-01-22T12:02:31.096Z,100156.28
2023-01-22T12:07:52.116Z,100149.13
2023-01-22T12:13:04.431Z,100143.84
2023-01-22T12:18:42.566Z,100154.94
2023-01-22T12:23:52.666Z,100164.31
2023-01-22T12:29:01.260Z,100152.59
2023-01-22T12:34:13.105Z,100160.97
2023-01-22T12:39:27.113Z,100169.84
2023-01-22T12:44:42.867Z,100165.19
2023-01-22T12:49:48.450Z,100155.69
2023-01-22T12:54:56.400Z,100165.66
2023-01-22T13:00:10.254Z,100159.81
2023-01-22T13:05:20.852Z,100165.94
2023-01-22T13:10:30.170Z,100159.59
2023-01-22T13:15:37.277Z,100173.25
2023-01-22T13:21:02.720Z,100181.69
2023-01-22T13:26:07.173Z,100185.59
2023-01-22T13:31:17.805Z,100184.78
2023-01-22T13:36:20.785Z,100188.31
2023-01-22T13:41:31.336Z,100190.88
2023-01-22T13:46:38.479Z,100188.75
2023-01-22T13:51:42.983Z,100198.53
2023-01-22T13:56:47.290Z,100212.16
2023-01-22T14:01:50.964Z,100203.34
2023-01-22T14:06:53.923Z,100207.44
2023-01-22T14:11:58.832Z,100205.69
2023-01-22T14:17:01.773Z,100207.31
2023-01-22T14:22:04.724Z,100210.63
2023-01-22T14:27:09.131Z,100203.47
2023-01-22T14:32:12.010Z,100203.34
2023-01-22T14:37:16.547Z,100206.28
2023-01-22T14:42:20.817Z,100205.91
2023-01-22T14:47:23.745Z,100196.44
2023-01-22T14:52:26.659Z,100212.75
2023-01-22T14:57:30.905Z,100204.97
2023-01-22T15:02:35.501Z,100207.31
2023-01-22T15:07:39.093Z,100207.78
2023-01-22T15:12:48.065Z,100214.13
2023-01-22T15:17:51.632Z,100226.41
2023-01-22T15:22:54.606Z,100213.63
2023-01-22T15:27:58.858Z,100217.38
2023-01-22T15:33:01.731Z,100220.69
2023-01-22T15:38:05.373Z,100228.66
2023-01-22T15:43:10.398Z,100221.84
2023-01-22T15:48:15.805Z,100223.97
2023-01-22T15:53:19.574Z,100229.13
2023-01-22T15:58:23.874Z,100239.69
2023-01-22T16:03:26.784Z,100255.19
2023-01-22T16:08:29.760Z,100257.28
2023-01-22T16:13:34.459Z,100257.38
2023-01-22T16:18:42.542Z,100270.88
2023-01-22T16:23:47.048Z,100275.31
2023-01-22T16:28:52.923Z,100278.25
2023-01-22T16:33:58.471Z,100282.31
2023-01-22T16:39:01.728Z,100273.44
2023-01-22T16:44:10.275Z,100270.41
2023-01-22T16:49:15.550Z,100282.63
2023-01-22T16:54:21.757Z,100287.38
2023-01-22T16:59:27.052Z,100292.94
2023-01-22T17:04:30.753Z,100276.63
2023-01-22T17:09:36.796Z,100284.72
2023-01-22T17:14:41.187Z,100286.50
2023-01-22T17:19:44.048Z,100293.28
2023-01-22T17:24:47.718Z,100293.03
2023-01-22T17:29:52.029Z,100302.91
2023-01-22T17:34:54.921Z,100303.19
2023-01-22T17:39:57.761Z,100318.25
2023-01-22T17:45:02.071Z,100324.59
2023-01-22T17:50:05.397Z,100328.03
2023-01-22T17:55:08.927Z,100336.38
2023-01-22T18:00:17.449Z,100339.53
2023-01-22T18:05:21.195Z,100343.94
2023-01-22T18:10:24.214Z,100347.06
2023-01-22T18:15:28.511Z,100353.41
2023-01-22T18:20:32.162Z,100346.38
2023-01-22T18:25:35.057Z,100362.16
2023-01-22T18:30:39.418Z,100355.81
2023-01-22T18:35:43.337Z,100362.63
2023-01-22T18:40:46.178Z,100371.66
2023-01-22T18:45:50.496Z,100378.00
2023-01-22T18:50:53.912Z,100385.41
2023-01-22T18:56:00.365Z,100386.78
2023-01-22T19:01:11.687Z,100394.78
2023-01-22T19:06:16.840Z,100391.56
2023-01-22T19:11:19.839Z,100395.38
2023-01-22T19:16:25.274Z,100400.25
2023-01-22T19:21:28.719Z,100406.13
2023-01-22T19:26:33.524Z,100406.63
2023-01-22T19:31:39.905Z,100411.66
2023-01-22T19:36:42.890Z,100420.47
2023-01-22T19:41:45.800Z,100427.69
2023-01-22T19:46:50.093Z,100431.91
2023-01-22T19:51:53.203Z,100426.66
2023-01-22T19:56:56.384Z,100433.38
2023-01-22T20:02:00.696Z,100436.72
2023-01-22T20:07:05.886Z,100439.28
2023-01-22T20:12:11.260Z,100450.66
2023-01-22T20:17:16.736Z,100444.53
2023-01-22T20:22:19.618Z,100444.09
2023-01-22T20:27:22.477Z,100448.56
2023-01-22T20:32:28.628Z,100455.47
2023-01-22T20:37:32.093Z,100459.13
2023-01-22T20:42:34.984Z,100454.22
2023-01-22T20:47:39.297Z,100463.16
2023-01-22T20:52:42.187Z,100460.06
2023-01-22T20:57:45.056Z,100473.41
2023-01-22T21:02:51.762Z,100489.97
2023-01-22T21:07:54.667Z,100480.19
2023-01-22T21:12:57.539Z,100490.59
2023-01-22T21:18:01.807Z,100483.19
2023-01-22T21:23:04.788Z,100485.31
2023-01-22T21:28:07.724Z,100491.88
2023-01-22T21:33:11.938Z,100504.69
2023-01-22T21:38:14.799Z,100511.06
2023-01-22T21:43:35.203Z,100519.94
2023-01-22T21:48:39.449Z,100528.50
2023-01-22T21:53:42.344Z,100531.94
2023-01-22T21:58:45.598Z,100538.66
2023-01-22T22:03:50.114Z,100536.44
2023-01-22T22:08:53.040Z,100539.41
2023-01-22T22:13:56.684Z,100548.91
2023-01-22T22:19:01.220Z,100544.56
2023-01-22T22:24:04.774Z,100552.91
2023-01-22T22:29:09.257Z,100557.03
2023-01-22T22:34:13.512Z,100561.81
2023-01-22T22:39:16.425Z,100565.88
2023-01-22T22:44:19.347Z,100563.34
2023-01-22T22:49:23.612Z,100566.16
2023-01-22T22:54:27.392Z,100572.47
2023-01-22T22:59:30.269Z,100581.19
2023-01-22T23:04:35.257Z,100584.28
2023-01-22T23:09:38.444Z,100585.16
2023-01-22T23:14:41.315Z,100589.44
2023-01-22T23:19:45.544Z,100598.41
2023-01-22T23:24:48.451Z,100597.88
2023-01-22T23:29:52.120Z,100601.19
2023-01-22T23:34:56.409Z,100605.94
2023-01-22T23:39:59.327Z,100601.31
2023-01-22T23:45:02.235Z,100607.72
2023-01-22T23:50:08.662Z,100604.31
2023-01-22T23:55:11.911Z,100614.03
